Terminal Aerodrome Forecast
Issued by NWS

Home | Current Version | Previous Version | Text Only | Print | Product List | Glossary On
Versions: 1 2 3 4 5 6 7 8 9 10 11 12 13 14 15
109
FTUS46 KLOX 291735
TAFPMD
TAF
KPMD 291735Z 2918/3018 27012KT P6SM SCT250
     FM292000 28022G32KT P6SM SCT250
     FM300300 26023KT P6SM SCT250=

USA.gov is the U.S. government's official web portal to all federal, state and local government web resources and services.